createdAt,value
2019-02-25T09:55:23.542Z,11.88
2019-02-25T09:58:00.961Z,13.93
2019-02-25T10:07:02.130Z,12.55
2019-02-25T10:09:40.640Z,12.88
2019-02-25T10:12:11.294Z,12.70
2019-02-25T10:15:01.487Z,12.47
2019-02-25T10:17:28.299Z,10.85
2019-02-25T10:37:53.766Z,12.98
2019-02-25T10:40:27.556Z,12.60
2019-02-25T10:46:11.714Z,11.80
2019-02-25T10:51:54.211Z,12.47
2019-02-25T11:31:00.009Z,11.55
2019-02-25T11:33:32.036Z,12.45
2019-02-25T11:36:01.372Z,10.60
2019-02-25T11:38:34.729Z,12.55
2019-02-25T11:41:04.204Z,10.45
2019-02-25T11:43:33.556Z,11.53
2019-02-25T11:46:03.138Z,13.48
2019-02-25T11:48:32.551Z,11.97
2019-02-25T11:51:01.867Z,11.68
2019-02-25T11:53:31.321Z,10.13
2019-02-25T11:56:00.782Z,10.58
2019-02-25T11:58:30.118Z,8.73
2019-02-25T12:01:00.510Z,8.23
2019-02-25T12:03:29.981Z,10.23
2019-02-25T12:06:01.095Z,11.15
2019-02-25T12:08:31.347Z,9.28
2019-02-25T12:11:02.552Z,10.18
2019-02-25T12:13:33.513Z,9.40
2019-02-25T12:16:16.476Z,8.88
2019-02-25T12:19:02.248Z,11.03
2019-02-25T12:21:35.632Z,11.28
2019-02-25T12:24:05.249Z,9.70
2019-02-25T12:26:35.997Z,7.47
2019-02-25T12:29:10.813Z,6.33
2019-02-25T12:31:42.742Z,6.37
2019-02-25T12:34:12.366Z,9.63
2019-02-25T12:36:41.942Z,8.33
2019-02-25T12:39:11.559Z,6.80
2019-02-25T12:41:41.062Z,6.65
2019-02-25T12:44:11.789Z,8.75
2019-02-25T12:46:43.070Z,7.58
2019-02-25T12:49:19.186Z,5.87
2019-02-25T12:51:48.837Z,6.75
2019-02-25T12:54:18.787Z,7.08
2019-02-25T12:56:48.532Z,7.17
2019-02-25T12:59:18.036Z,8.45
2019-02-25T13:01:47.516Z,6.83
2019-02-25T13:04:17.177Z,7.05
2019-02-25T13:06:46.572Z,6.22
2019-02-25T13:09:15.890Z,6.75
2019-02-25T13:11:45.459Z,4.37
2019-02-25T13:14:15.002Z,6.95
2019-02-25T13:16:44.486Z,4.47
2019-02-25T13:19:14.089Z,8.23
2019-02-25T13:21:43.381Z,7.53
2019-02-25T13:24:12.789Z,6.97
2019-02-25T13:26:42.176Z,10.43
2019-02-25T13:29:11.709Z,8.48
2019-02-25T13:31:41.024Z,6.72
2019-02-25T13:34:10.607Z,6.42
2019-02-25T13:36:40.015Z,6.42
2019-02-25T13:39:09.445Z,5.87
2019-02-25T13:41:41.188Z,4.70
2019-02-25T13:44:10.799Z,6.58
2019-02-25T13:46:40.273Z,5.12
2019-02-25T13:49:09.948Z,6.40
2019-02-25T13:51:39.528Z,9.98
2019-02-25T13:54:09.257Z,7.25
2019-02-25T13:56:39.016Z,9.65
2019-02-25T13:59:08.692Z,11.65
2019-02-25T14:01:38.220Z,7.67
2019-02-25T14:04:07.652Z,6.40
2019-02-25T14:06:37.214Z,7.10
2019-02-25T14:09:08.371Z,7.42
2019-02-25T14:11:39.318Z,6.05
2019-02-25T14:14:08.867Z,8.78
2019-02-25T14:16:38.596Z,6.12
2019-02-25T14:19:08.065Z,7.70
2019-02-25T14:21:39.235Z,6.92
2019-02-25T14:24:08.865Z,5.55
2019-02-25T14:26:39.117Z,6.37
2019-02-25T14:29:09.594Z,6.75
2019-02-25T14:31:39.038Z,8.53
2019-02-25T14:34:08.566Z,5.47
2019-02-25T14:36:38.006Z,6.37
2019-02-25T14:39:17.859Z,5.20
2019-02-25T14:41:47.259Z,6.97
2019-02-25T14:44:16.771Z,6.72
2019-02-25T14:46:46.174Z,6.47
2019-02-25T14:49:15.569Z,6.22
2019-02-25T14:51:45.187Z,7.92
2019-02-25T14:54:14.951Z,7.15
2019-02-25T14:56:50.224Z,6.92
2019-02-25T14:59:22.156Z,5.83
2019-02-25T15:01:51.567Z,7.33
2019-02-25T15:04:22.558Z,5.95
2019-02-25T15:06:52.290Z,6.60
2019-02-25T15:15:04.697Z,6.20
2019-02-25T16:25:41.001Z,5.72
2019-02-25T16:28:14.469Z,6.25
2019-02-25T16:30:46.887Z,8.03
2019-02-25T16:33:18.365Z,5.58
2019-02-25T16:35:48.295Z,6.92
2019-02-25T16:38:21.117Z,8.65
2019-02-25T16:40:50.196Z,8.10
2019-02-25T16:43:21.769Z,8.28
2019-02-25T16:45:52.493Z,4.78
2019-02-25T16:48:26.441Z,7.92
2019-02-25T16:50:55.933Z,6.78
2019-02-25T16:53:26.013Z,7.58
2019-02-25T16:55:55.540Z,7.10
2019-02-25T16:58:25.485Z,6.65
2019-02-25T17:00:58.527Z,7.42
2019-02-25T17:03:34.781Z,6.35
2019-02-25T17:05:59.848Z,7.03
2019-02-25T17:08:32.377Z,6.62
2019-02-25T17:11:06.069Z,6.40
2019-02-25T17:13:39.412Z,7.03
2019-02-25T17:16:18.091Z,8.03
2019-02-25T17:49:06.028Z,9.78
2019-02-25T17:51:36.920Z,12.30
2019-02-25T20:15:53.217Z,26.82
2019-02-25T20:18:23.568Z,29.00
2019-02-25T20:20:57.729Z,21.07
2019-02-25T20:23:28.896Z,23.27
2019-02-25T20:25:59.023Z,22.90
2019-02-25T20:28:28.601Z,22.70
2019-02-25T20:31:02.599Z,25.82
2019-02-25T20:33:34.578Z,23.52
2019-02-25T20:36:03.421Z,27.73
2019-02-25T20:38:34.744Z,25.23
2019-02-25T20:41:05.367Z,27.62
2019-02-25T20:43:34.832Z,27.90
2019-02-25T20:46:06.090Z,29.80
2019-02-25T20:48:35.468Z,29.27
2019-02-25T20:51:07.202Z,30.10
2019-02-25T20:53:38.247Z,42.73
2019-02-25T20:56:07.852Z,58.33
2019-02-25T20:58:40.033Z,52.48
2019-02-25T21:01:12.091Z,59.80
2019-02-25T21:03:43.831Z,68.47
2019-02-25T21:06:14.384Z,53.80
2019-02-25T21:08:44.591Z,47.08
2019-02-25T21:11:15.873Z,44.98
2019-02-25T21:13:45.651Z,40.98
2019-02-25T21:16:18.490Z,39.53
2019-02-25T21:18:48.787Z,42.20
2019-02-25T21:21:19.257Z,44.20
2019-02-25T21:23:48.503Z,48.28
2019-02-25T21:26:19.877Z,49.58
2019-02-25T22:23:21.947Z,24.55
2019-02-25T22:25:53.419Z,22.73
2019-02-25T22:28:25.005Z,29.57
2019-02-25T22:35:16.256Z,23.65
2019-02-25T22:37:55.483Z,25.43
2019-02-25T22:40:27.825Z,23.62
2019-02-25T22:42:58.902Z,26.57
2019-02-25T22:45:28.506Z,21.93
